Maersk Vallvik — 9V8839 — position and weather

sailwx.info

Track history (hours):
 
Tides and Currents Weather Stations Pressure Air Temp Water Temp Dewpoint Dewpoint Depression Visibility Wind Speed Wind Dir Waves Ship Positions

Maersk Vallvik

Last reported at 2015-Jan-18 13:33 UTC. Time now 2015-Jan-30 14:01 UTC.
Position S 34°05' E 018°14'.
Warning: this ship's position is 12 days out of date.

Length 180 m; draft 8.9 m.

Type: Ship (hazmat cat A). MMSI: 564837000.

Date/timePositionNaut miles runAvg speedWind from/ knotsBaromVisibWave heightAir tempDewpointWater temp
2015-Jan-18 13:33S 34°05' E 018°14'6 6.2
2015-Jan-18 12:33S 34°11' E 018°12'16 7.8
2015-Jan-18 10:31S 34°25' E 018°21'12 9.9
2015-Jan-18 09:16S 34°31' E 018°34'9 9.9
2015-Jan-18 08:22S 34°35' E 018°44'4 3.7
2015-Jan-18 07:21S 34°36' E 018°48'  
2015-Jan-15 15:27S 32°01' E 029°20'13010.9
2015-Jan-15 03:33S 30°20' E 030°54'10 9.7
2015-Jan-15 02:32S 30°11' E 031°00'9 9.1
2015-Jan-15 01:32S 30°03' E 031°05'9 9.4
2015-Jan-15 00:33S 29°55' E 031°10'4 3.9
2015-Jan-14 23:33S 29°51' E 031°09'8 7.8
2015-Jan-14 22:34S 29°52' E 031°01'1 0.7
2015-Jan-14 21:20S 29°53' E 031°00'0 0.0
2015-Jan-14 20:08S 29°53' E 031°00'0 0.0
2015-Jan-14 19:32S 29°53' E 031°00'0 0.0
2015-Jan-14 17:20S 29°53' E 031°00'0 0.0
2015-Jan-14 16:32S 29°53' E 031°00'0 0.0
2015-Jan-14 15:32S 29°53' E 031°00'0 0.0
2015-Jan-14 13:14S 29°53' E 031°00'0 0.0
2015-Jan-14 12:32S 29°53' E 031°00'0 0.0
2015-Jan-14 11:26S 29°53' E 031°00'0 0.0
2015-Jan-14 10:32S 29°53' E 031°00'0 0.0
2015-Jan-13 21:32S 29°53' E 031°00'0 0.0
2015-Jan-13 20:14S 29°53' E 031°00'0 0.0
2015-Jan-12 20:14S 29°53' E 031°00'0 0.0
2015-Jan-12 19:20S 29°53' E 031°00'0 0.0
2015-Jan-12 12:32S 29°53' E 031°00'0 0.0
2015-Jan-12 11:20S 29°53' E 031°00'0 0.0
2015-Jan-12 10:26S 29°53' E 031°00'0 0.0
2015-Jan-12 09:32S 29°53' E 031°00'0 0.0
2015-Jan-12 08:20S 29°53' E 031°00'0 0.0
2015-Jan-12 07:32S 29°53' E 031°00'0 0.0
2015-Jan-12 06:32S 29°53' E 031°00'0 0.0
2015-Jan-12 03:32S 29°53' E 031°00'0 0.0
2015-Jan-12 02:20S 29°53' E 031°00'0 0.0
2015-Jan-12 01:26S 29°53' E 031°00'0 0.0
2015-Jan-11 23:26S 29°53' E 031°00'0 0.0
2015-Jan-11 22:26S 29°53' E 031°00'0 0.0
2015-Jan-11 21:32S 29°53' E 031°00'0 0.0
2015-Jan-11 20:20S 29°53' E 031°00'0 0.0
2015-Jan-11 17:32S 29°53' E 031°00'0 0.0
2015-Jan-11 16:26S 29°53' E 031°00'0 0.0
2015-Jan-11 15:26S 29°53' E 031°00'0 0.0
2015-Jan-11 14:32S 29°53' E 031°00'0 0.0
2015-Jan-11 13:32S 29°53' E 031°00'0 0.0
2015-Jan-11 12:08S 29°53' E 031°00'0 0.0
2015-Jan-11 11:32S 29°53' E 031°00'2 1.8
2015-Jan-11 10:33S 29°52' E 031°02'6 6.0
2015-Jan-11 09:33S 29°48' E 031°07'1 0.7
2015-Jan-11 08:33S 29°49' E 031°07'4 4.5
2015-Jan-11 07:33S 29°51' E 031°12'1 1.1
2015-Jan-11 06:33S 29°52' E 031°11'9 9.2
2015-Jan-11 05:33S 30°00' E 031°06'1110.5
2015-Jan-11 04:33S 30°09' E 030°59'295 7.5
2015-Jan-09 13:23S 33°43' E 026°60'27 9.1
2015-Jan-09 10:24S 33°55' E 026°31'29 8.8
2015-Jan-09 07:08S 33°55' E 025°57'  
Track history (hours):
 
Tides and Currents Weather Stations Pressure Air Temp Water Temp Dewpoint Dewpoint Depression Visibility Wind Speed Wind Dir Waves Ship Positions

Maersk Vallvik

Last reported at 2015-Jan-18 13:33 UTC. Time now 2015-Jan-30 14:01 UTC.
Position S 34°05' E 018°14'.
Warning: this ship's position is 12 days out of date.

Length 180 m; draft 8.9 m.

Type: Ship (hazmat cat A). MMSI: 564837000.

Date/timePositionNaut miles runAvg speedWind from/ knotsBaromVisibWave heightAir tempDewpointWater temp
2015-Jan-18 13:33S 34°05' E 018°14'6 6.2
2015-Jan-18 12:33S 34°11' E 018°12'16 7.8
2015-Jan-18 10:31S 34°25' E 018°21'12 9.9
2015-Jan-18 09:16S 34°31' E 018°34'9 9.9
2015-Jan-18 08:22S 34°35' E 018°44'4 3.7
2015-Jan-18 07:21S 34°36' E 018°48'  
2015-Jan-15 15:27S 32°01' E 029°20'13010.9
2015-Jan-15 03:33S 30°20' E 030°54'10 9.7
2015-Jan-15 02:32S 30°11' E 031°00'9 9.1
2015-Jan-15 01:32S 30°03' E 031°05'9 9.4
2015-Jan-15 00:33S 29°55' E 031°10'4 3.9
2015-Jan-14 23:33S 29°51' E 031°09'8 7.8
2015-Jan-14 22:34S 29°52' E 031°01'1 0.7
2015-Jan-14 21:20S 29°53' E 031°00'0 0.0
2015-Jan-14 20:08S 29°53' E 031°00'0 0.0
2015-Jan-14 19:32S 29°53' E 031°00'0 0.0
2015-Jan-14 17:20S 29°53' E 031°00'0 0.0
2015-Jan-14 16:32S 29°53' E 031°00'0 0.0
2015-Jan-14 15:32S 29°53' E 031°00'0 0.0
2015-Jan-14 13:14S 29°53' E 031°00'0 0.0
2015-Jan-14 12:32S 29°53' E 031°00'0 0.0
2015-Jan-14 11:26S 29°53' E 031°00'0 0.0
2015-Jan-14 10:32S 29°53' E 031°00'0 0.0
2015-Jan-13 21:32S 29°53' E 031°00'0 0.0
2015-Jan-13 20:14S 29°53' E 031°00'0 0.0
2015-Jan-12 20:14S 29°53' E 031°00'0 0.0
2015-Jan-12 19:20S 29°53' E 031°00'0 0.0
2015-Jan-12 12:32S 29°53' E 031°00'0 0.0
2015-Jan-12 11:20S 29°53' E 031°00'0 0.0
2015-Jan-12 10:26S 29°53' E 031°00'0 0.0
2015-Jan-12 09:32S 29°53' E 031°00'0 0.0
2015-Jan-12 08:20S 29°53' E 031°00'0 0.0
2015-Jan-12 07:32S 29°53' E 031°00'0 0.0
2015-Jan-12 06:32S 29°53' E 031°00'0 0.0
2015-Jan-12 03:32S 29°53' E 031°00'0 0.0
2015-Jan-12 02:20S 29°53' E 031°00'0 0.0
2015-Jan-12 01:26S 29°53' E 031°00'0 0.0
2015-Jan-11 23:26S 29°53' E 031°00'0 0.0
2015-Jan-11 22:26S 29°53' E 031°00'0 0.0
2015-Jan-11 21:32S 29°53' E 031°00'0 0.0
2015-Jan-11 20:20S 29°53' E 031°00'0 0.0
2015-Jan-11 17:32S 29°53' E 031°00'0 0.0
2015-Jan-11 16:26S 29°53' E 031°00'0 0.0
2015-Jan-11 15:26S 29°53' E 031°00'0 0.0
2015-Jan-11 14:32S 29°53' E 031°00'0 0.0
2015-Jan-11 13:32S 29°53' E 031°00'0 0.0
2015-Jan-11 12:08S 29°53' E 031°00'0 0.0
2015-Jan-11 11:32S 29°53' E 031°00'2 1.8
2015-Jan-11 10:33S 29°52' E 031°02'6 6.0
2015-Jan-11 09:33S 29°48' E 031°07'1 0.7
2015-Jan-11 08:33S 29°49' E 031°07'4 4.5
2015-Jan-11 07:33S 29°51' E 031°12'1 1.1
2015-Jan-11 06:33S 29°52' E 031°11'9 9.2
2015-Jan-11 05:33S 30°00' E 031°06'1110.5
2015-Jan-11 04:33S 30°09' E 030°59'295 7.5
2015-Jan-09 13:23S 33°43' E 026°60'27 9.1
2015-Jan-09 10:24S 33°55' E 026°31'29 8.8
2015-Jan-09 07:08S 33°55' E 025°57'  

Dump ship's entire track history